Time;durP1;ratioP1;P1;durP2;ratioP2;P2;SDS_P1;SDS_P2;PMS_P1;PMS_P2;Temp;Humidity;BMP_temperature;BMP_pressure;BME280_temperature;BME280_humidity;BME280_pressure;Samples;Min_cycle;Max_cycle;Signal;HPM_P1;HPM_P2
2022/10/17 00:02:24;;;;;;;;;;;19.90;75.10;;;;;;5041651;27;91166;-64
2022/10/17 00:04:50;;;;;;;;;;;19.90;75.20;;;;;;5046793;27;90049;-63
2022/10/17 00:07:15;;;;;;;;;;;20.00;75.10;;;;;;5046689;27;95854;-63
2022/10/17 00:09:42;;;;;;;;;;;19.90;75.10;;;;;;5041849;27;89431;-63
2022/10/17 00:12:07;;;;;;;;;;;19.90;75.10;;;;;;5038281;27;90321;-57
2022/10/17 00:14:33;;;;;;;;;;;19.90;75.20;;;;;;5042699;27;90229;-62
2022/10/17 00:16:59;;;;;;;;;;;19.90;75.00;;;;;;5048395;27;90792;-62
2022/10/17 00:19:24;;;;;;;;;;;19.90;75.00;;;;;;5036031;27;91235;-60
2022/10/17 00:21:50;;;;;;;;;;;19.90;75.00;;;;;;5036299;27;96626;-64
2022/10/17 00:24:15;;;;;;;;;;;19.90;74.90;;;;;;5046630;27;91202;-62
2022/10/17 00:26:41;;;;;;;;;;;19.90;75.00;;;;;;5041569;27;93428;-62
2022/10/17 00:29:06;;;;;;;;;;;19.90;75.10;;;;;;5044364;27;90047;-61
2022/10/17 00:31:32;;;;;;;;;;;19.90;75.10;;;;;;5042536;27;91188;-59
2022/10/17 00:33:57;;;;;;;;;;;19.90;75.00;;;;;;5040147;27;90505;-62
2022/10/17 00:36:24;;;;;;;;;;;19.90;75.00;;;;;;5041296;27;90786;-61
2022/10/17 00:38:51;;;;;;;;;;;19.90;75.00;;;;;;5046774;27;90375;-62
2022/10/17 00:41:17;;;;;;;;;;;19.90;75.00;;;;;;5047287;27;91402;-62
2022/10/17 00:43:51;;;;;;;;;;;19.90;75.70;;;;;;5049740;27;91956;-62
2022/10/17 00:46:16;;;;;;;;;;;19.80;75.00;;;;;;5043445;27;90032;-59
2022/10/17 00:48:42;;;;;;;;;;;19.90;75.10;;;;;;5046057;27;90034;-61
2022/10/17 00:51:08;;;;;;;;;;;19.90;74.90;;;;;;5049849;27;90209;-61
2022/10/17 00:53:34;;;;;;;;;;;19.80;74.90;;;;;;5053648;27;90272;-62
2022/10/17 00:56:00;;;;;;;;;;;19.90;75.00;;;;;;5046303;27;89843;-63
2022/10/17 00:58:25;;;;;;;;;;;19.80;74.90;;;;;;5047472;27;89242;-63
2022/10/17 01:00:51;;;;;;;;;;;19.90;75.00;;;;;;5035722;27;92556;-56
2022/10/17 01:03:16;;;;;;;;;;;19.90;75.00;;;;;;5035196;27;90354;-61
2022/10/17 01:05:42;;;;;;;;;;;19.80;74.90;;;;;;5048968;27;91724;-63
2022/10/17 01:08:08;;;;;;;;;;;19.80;74.90;;;;;;5053481;27;90308;-61
2022/10/17 01:10:45;;;;;;;;;;;19.80;74.90;;;;;;5057642;27;89729;-60
2022/10/17 01:13:12;;;;;;;;;;;19.90;74.90;;;;;;5052909;27;90469;-63
2022/10/17 01:15:42;;;;;;;;;;;19.80;74.90;;;;;;5049295;27;89540;-62
2022/10/17 01:18:16;;;;;;;;;;;19.80;74.70;;;;;;5037622;27;91323;-62
2022/10/17 01:20:42;;;;;;;;;;;19.80;74.80;;;;;;5048043;27;90560;-60
2022/10/17 01:23:13;;;;;;;;;;;19.80;74.90;;;;;;5053390;27;90457;-63
2022/10/17 01:25:51;;;;;;;;;;;19.80;74.80;;;;;;5044575;27;96434;-61
2022/10/17 01:28:43;;;;;;;;;;;19.80;74.70;;;;;;5048070;27;90109;-61
2022/10/17 01:31:16;;;;;;;;;;;19.80;74.70;;;;;;5046150;27;92180;-62
2022/10/17 01:33:41;;;;;;;;;;;19.80;74.70;;;;;;5043094;27;90487;-61
2022/10/17 01:36:07;;;;;;;;;;;19.80;74.70;;;;;;5050531;27;96932;-58
2022/10/17 01:38:52;;;;;;;;;;;19.80;74.70;;;;;;5049653;27;90805;-60
2022/10/17 01:41:36;;;;;;;;;;;19.80;74.80;;;;;;5044728;27;90719;-60
2022/10/17 01:44:18;;;;;;;;;;;19.80;74.70;;;;;;5038958;27;90084;-62
2022/10/17 01:46:47;;;;;;;;;;;19.80;74.70;;;;;;5043070;27;90119;-62
2022/10/17 01:49:15;;;;;;;;;;;19.80;74.70;;;;;;5044518;27;91505;-60
2022/10/17 01:51:48;;;;;;;;;;;19.80;74.70;;;;;;5049778;27;90962;-64
2022/10/17 01:54:16;;;;;;;;;;;19.80;74.60;;;;;;5046640;27;89436;-61
2022/10/17 01:56:42;;;;;;;;;;;19.80;74.70;;;;;;5045523;27;91304;-61
2022/10/17 01:59:12;;;;;;;;;;;19.80;74.70;;;;;;5049096;27;90926;-62
2022/10/17 02:01:39;;;;;;;;;;;19.80;74.70;;;;;;5047230;27;90262;-61
2022/10/17 02:04:06;;;;;;;;;;;19.80;74.70;;;;;;5047978;27;90647;-62
2022/10/17 02:06:35;;;;;;;;;;;19.80;74.70;;;;;;5043399;27;90577;-61
2022/10/17 02:09:14;;;;;;;;;;;19.80;74.70;;;;;;5051675;27;91103;-63
2022/10/17 02:11:39;;;;;;;;;;;19.80;75.30;;;;;;5044324;27;92064;-62
2022/10/17 02:14:05;;;;;;;;;;;19.80;74.60;;;;;;5049215;27;89210;-62
2022/10/17 02:16:33;;;;;;;;;;;19.80;74.60;;;;;;5039882;27;90939;-62
2022/10/17 02:18:58;;;;;;;;;;;19.80;74.60;;;;;;5049239;27;91363;-62
2022/10/17 02:21:24;;;;;;;;;;;19.80;74.60;;;;;;5041743;27;91423;-62
2022/10/17 02:23:56;;;;;;;;;;;19.80;74.70;;;;;;5046326;27;90538;-62
2022/10/17 02:26:31;;;;;;;;;;;19.80;74.60;;;;;;5041676;27;91546;-62
2022/10/17 02:28:57;;;;;;;;;;;19.80;74.60;;;;;;5043266;27;90050;-62
2022/10/17 02:31:29;;;;;;;;;;;19.80;74.60;;;;;;5033327;27;90995;-62
2022/10/17 02:33:55;;;;;;;;;;;19.80;74.50;;;;;;5044369;27;90324;-61
2022/10/17 02:36:22;;;;;;;;;;;19.80;74.50;;;;;;5041104;27;91816;-63
2022/10/17 02:38:48;;;;;;;;;;;19.80;74.50;;;;;;5050218;27;89059;-62
2022/10/17 02:41:15;;;;;;;;;;;19.80;74.50;;;;;;5043071;27;90840;-62
2022/10/17 02:43:44;;;;;;;;;;;19.80;74.40;;;;;;5044142;27;92188;-54
2022/10/17 02:46:11;;;;;;;;;;;19.80;74.40;;;;;;5047825;27;91462;-62
2022/10/17 02:48:39;;;;;;;;;;;19.80;74.40;;;;;;5043012;27;91347;-62
2022/10/17 02:51:16;;;;;;;;;;;19.80;74.50;;;;;;5049711;27;90160;-62
2022/10/17 02:53:50;;;;;;;;;;;19.80;74.40;;;;;;5046857;27;90447;-61
2022/10/17 02:56:17;;;;;;;;;;;19.80;74.40;;;;;;5051289;27;95020;-62
2022/10/17 02:58:45;;;;;;;;;;;19.80;74.40;;;;;;5041563;27;90205;-62
2022/10/17 03:01:11;;;;;;;;;;;19.80;74.30;;;;;;5035688;27;90744;-62
2022/10/17 03:03:36;;;;;;;;;;;19.80;74.30;;;;;;5024107;27;90402;-62
2022/10/17 03:06:02;;;;;;;;;;;19.80;74.30;;;;;;5048836;27;89698;-57
2022/10/17 03:08:27;;;;;;;;;;;19.80;74.30;;;;;;5042850;27;90050;-58
2022/10/17 03:10:53;;;;;;;;;;;19.80;74.30;;;;;;5040487;27;91047;-57
2022/10/17 03:13:18;;;;;;;;;;;19.80;74.30;;;;;;5046160;27;92210;-61
2022/10/17 03:15:44;;;;;;;;;;;19.80;74.30;;;;;;5030269;27;90291;-60
2022/10/17 03:18:09;;;;;;;;;;;19.80;74.30;;;;;;5038026;27;90203;-62
2022/10/17 03:20:35;;;;;;;;;;;19.80;74.30;;;;;;5042551;27;92410;-62
2022/10/17 03:23:00;;;;;;;;;;;19.80;74.30;;;;;;5030420;27;90272;-61
2022/10/17 03:25:26;;;;;;;;;;;19.80;74.20;;;;;;5049047;27;91041;-62
2022/10/17 03:27:52;;;;;;;;;;;19.80;74.20;;;;;;5047525;27;92306;-60
2022/10/17 03:30:18;;;;;;;;;;;19.80;74.10;;;;;;5045750;27;89947;-65
2022/10/17 03:32:43;;;;;;;;;;;19.80;74.20;;;;;;5046992;27;91791;-63
2022/10/17 03:35:09;;;;;;;;;;;19.80;74.10;;;;;;5041780;27;91642;-61
2022/10/17 03:37:34;;;;;;;;;;;19.80;74.20;;;;;;5040363;27;90309;-61
2022/10/17 03:40:00;;;;;;;;;;;19.80;74.20;;;;;;5045962;27;96539;-61
2022/10/17 03:42:25;;;;;;;;;;;19.80;74.20;;;;;;5042034;27;95717;-61
2022/10/17 03:44:51;;;;;;;;;;;19.80;74.20;;;;;;5054516;27;90078;-62
2022/10/17 03:47:16;;;;;;;;;;;19.80;74.20;;;;;;5047057;27;93961;-62
2022/10/17 03:49:42;;;;;;;;;;;19.80;74.10;;;;;;5042881;27;91154;-61
2022/10/17 03:52:11;;;;;;;;;;;19.80;74.10;;;;;;5043205;27;89430;-61
2022/10/17 03:54:37;;;;;;;;;;;19.80;74.20;;;;;;5042083;27;90410;-59
2022/10/17 03:57:02;;;;;;;;;;;19.80;74.10;;;;;;5041059;27;90196;-60
2022/10/17 03:59:28;;;;;;;;;;;19.80;74.10;;;;;;5039593;27;91606;-62
2022/10/17 04:01:53;;;;;;;;;;;19.80;74.10;;;;;;5029530;27;91051;-60
2022/10/17 04:04:19;;;;;;;;;;;19.80;74.10;;;;;;5031423;27;92145;-59
2022/10/17 04:06:44;;;;;;;;;;;19.80;74.10;;;;;;5050073;27;91506;-61
2022/10/17 04:09:10;;;;;;;;;;;19.80;74.10;;;;;;5050371;27;90370;-58
2022/10/17 04:11:35;;;;;;;;;;;19.80;74.10;;;;;;5038976;27;90115;-63
2022/10/17 04:14:01;;;;;;;;;;;19.80;74.10;;;;;;5037607;27;92661;-62
2022/10/17 04:16:26;;;;;;;;;;;19.80;74.10;;;;;;5038275;27;90090;-62
2022/10/17 04:18:54;;;;;;;;;;;19.80;74.20;;;;;;5033915;27;90603;-62
2022/10/17 04:21:19;;;;;;;;;;;19.80;74.10;;;;;;5045352;27;90180;-61
2022/10/17 04:23:45;;;;;;;;;;;19.70;74.20;;;;;;5052086;27;90830;-61
2022/10/17 04:26:10;;;;;;;;;;;19.80;74.20;;;;;;5054391;27;91890;-63
2022/10/17 04:28:36;;;;;;;;;;;19.70;74.20;;;;;;5037119;27;90345;-61
2022/10/17 04:31:06;;;;;;;;;;;19.80;74.30;;;;;;5032633;27;89900;-61
2022/10/17 04:33:32;;;;;;;;;;;19.70;74.20;;;;;;5050024;27;92582;-62
2022/10/17 04:35:59;;;;;;;;;;;19.70;74.20;;;;;;5056230;27;89917;-61
2022/10/17 04:38:25;;;;;;;;;;;19.80;74.30;;;;;;5040947;27;91322;-62
2022/10/17 04:40:50;;;;;;;;;;;19.80;74.20;;;;;;5034625;27;91287;-61
2022/10/17 04:43:16;;;;;;;;;;;19.70;74.30;;;;;;5029114;27;93851;-62
2022/10/17 04:45:42;;;;;;;;;;;19.70;74.30;;;;;;5043720;27;90141;-61
2022/10/17 04:48:07;;;;;;;;;;;19.70;74.30;;;;;;5039536;27;91731;-63
2022/10/17 04:50:33;;;;;;;;;;;19.70;74.30;;;;;;5048365;27;90474;-61
2022/10/17 04:52:58;;;;;;;;;;;19.80;74.30;;;;;;5047891;27;89944;-55
2022/10/17 04:55:24;;;;;;;;;;;19.70;74.30;;;;;;5044257;27;90254;-52
2022/10/17 04:57:49;;;;;;;;;;;19.80;74.40;;;;;;5046418;27;90836;-57
2022/10/17 05:00:15;;;;;;;;;;;19.80;74.30;;;;;;5048411;27;91632;-54
2022/10/17 05:02:40;;;;;;;;;;;19.80;74.30;;;;;;5054524;27;89901;-56
2022/10/17 05:05:06;;;;;;;;;;;19.80;74.30;;;;;;5036893;27;95263;-56
2022/10/17 05:07:32;;;;;;;;;;;19.70;74.30;;;;;;5050837;27;91052;-56
2022/10/17 05:09:57;;;;;;;;;;;19.70;74.30;;;;;;5041736;27;93426;-57
2022/10/17 05:12:23;;;;;;;;;;;19.80;74.50;;;;;;5040527;27;90881;-58
2022/10/17 05:14:48;;;;;;;;;;;19.80;74.40;;;;;;5043344;27;92349;-56
2022/10/17 05:17:14;;;;;;;;;;;19.80;74.50;;;;;;5039891;27;90748;-56
2022/10/17 05:19:40;;;;;;;;;;;19.80;74.50;;;;;;5053291;27;89860;-57
2022/10/17 05:22:05;;;;;;;;;;;19.70;74.40;;;;;;5038623;27;89615;-54
2022/10/17 05:24:31;;;;;;;;;;;19.70;74.40;;;;;;5044254;27;91987;-56
2022/10/17 05:26:56;;;;;;;;;;;19.70;74.40;;;;;;5050638;27;90737;-57
2022/10/17 05:29:22;;;;;;;;;;;19.70;74.40;;;;;;5053310;27;89568;-56
2022/10/17 05:31:47;;;;;;;;;;;19.70;74.40;;;;;;5043114;27;89595;-55
2022/10/17 05:34:13;;;;;;;;;;;19.70;74.30;;;;;;5050393;27;90137;-56
2022/10/17 05:36:39;;;;;;;;;;;19.80;74.40;;;;;;5056624;27;91940;-56
2022/10/17 05:39:04;;;;;;;;;;;19.80;74.40;;;;;;5054176;27;89452;-56
2022/10/17 05:41:30;;;;;;;;;;;19.80;74.40;;;;;;5049259;27;89830;-57
2022/10/17 05:43:55;;;;;;;;;;;19.80;74.40;;;;;;5051391;27;89762;-56
2022/10/17 05:46:21;;;;;;;;;;;19.70;74.40;;;;;;5043947;27;91006;-56
2022/10/17 05:48:46;;;;;;;;;;;19.70;74.40;;;;;;5051670;27;93515;-58
2022/10/17 05:51:12;;;;;;;;;;;19.70;74.30;;;;;;5051129;27;89769;-56
2022/10/17 05:53:39;;;;;;;;;;;19.70;74.40;;;;;;5054902;27;89500;-56
2022/10/17 05:56:06;;;;;;;;;;;19.70;74.30;;;;;;5042565;27;90293;-56
2022/10/17 05:58:33;;;;;;;;;;;19.80;74.40;;;;;;5045145;27;95142;-56
2022/10/17 06:00:59;;;;;;;;;;;19.70;74.30;;;;;;5052439;27;91927;-56
2022/10/17 06:03:25;;;;;;;;;;;19.70;74.30;;;;;;5062292;27;89654;-55
2022/10/17 06:05:51;;;;;;;;;;;19.70;74.30;;;;;;5029439;27;92799;-55
2022/10/17 06:08:17;;;;;;;;;;;19.80;74.30;;;;;;5043345;27;91307;-56
2022/10/17 06:10:42;;;;;;;;;;;19.70;74.20;;;;;;5048216;27;89540;-55
2022/10/17 06:13:08;;;;;;;;;;;19.80;74.20;;;;;;5045424;27;89925;-55
2022/10/17 06:15:33;;;;;;;;;;;19.70;74.20;;;;;;5060915;27;89641;-56
2022/10/17 06:17:59;;;;;;;;;;;19.70;74.10;;;;;;5045727;27;90896;-53
2022/10/17 06:20:24;;;;;;;;;;;19.70;74.20;;;;;;5045929;27;91603;-52
2022/10/17 06:22:50;;;;;;;;;;;19.80;74.10;;;;;;5054399;27;90050;-54
2022/10/17 06:25:15;;;;;;;;;;;19.70;74.20;;;;;;5048577;27;90942;-56
2022/10/17 06:27:41;;;;;;;;;;;19.70;74.20;;;;;;5045648;27;90488;-54
2022/10/17 06:30:06;;;;;;;;;;;19.70;74.30;;;;;;5059275;27;89972;-56
2022/10/17 06:32:33;;;;;;;;;;;19.80;74.30;;;;;;5024509;27;97516;-60
2022/10/17 06:34:58;;;;;;;;;;;19.70;74.20;;;;;;5041579;27;90652;-56
2022/10/17 06:37:24;;;;;;;;;;;19.70;74.20;;;;;;5047314;27;89683;-57
2022/10/17 06:39:49;;;;;;;;;;;19.70;74.30;;;;;;5048535;27;89734;-54
2022/10/17 06:42:16;;;;;;;;;;;19.70;74.30;;;;;;5055777;27;88812;-56
2022/10/17 06:44:41;;;;;;;;;;;19.70;74.30;;;;;;5046833;27;90398;-55
2022/10/17 06:47:08;;;;;;;;;;;19.70;74.30;;;;;;5057562;27;89630;-57
2022/10/17 06:49:33;;;;;;;;;;;19.70;74.30;;;;;;5026277;27;92414;-55
2022/10/17 06:51:59;;;;;;;;;;;19.80;74.40;;;;;;5046805;27;90446;-56
2022/10/17 06:54:25;;;;;;;;;;;19.70;74.30;;;;;;5051255;27;90089;-54
2022/10/17 06:56:50;;;;;;;;;;;19.70;74.30;;;;;;5059745;27;89856;-56
2022/10/17 06:59:16;;;;;;;;;;;19.70;74.20;;;;;;5057727;27;90323;-56
2022/10/17 07:01:41;;;;;;;;;;;19.80;74.30;;;;;;5045419;27;89982;-56
2022/10/17 07:04:07;;;;;;;;;;;19.70;74.20;;;;;;5047141;27;91939;-56
2022/10/17 07:06:32;;;;;;;;;;;19.70;74.30;;;;;;5050374;27;91016;-57
2022/10/17 07:08:59;;;;;;;;;;;19.70;74.30;;;;;;5043430;27;90923;-54
2022/10/17 07:11:25;;;;;;;;;;;19.70;74.20;;;;;;5054134;27;90055;-56
2022/10/17 07:13:51;;;;;;;;;;;19.70;74.20;;;;;;5047797;27;91240;-56
2022/10/17 07:16:16;;;;;;;;;;;19.70;74.30;;;;;;5054594;27;90703;-55
2022/10/17 07:18:42;;;;;;;;;;;19.70;74.30;;;;;;5046306;27;89719;-54
2022/10/17 07:21:07;;;;;;;;;;;19.70;74.30;;;;;;5038847;27;94096;-58
2022/10/17 07:23:35;;;;;;;;;;;19.80;74.30;;;;;;5048916;27;89810;-52
2022/10/17 07:26:05;;;;;;;;;;;19.70;74.30;;;;;;5040905;27;89441;-52
2022/10/17 07:28:31;;;;;;;;;;;19.70;74.20;;;;;;5047097;27;89861;-55
2022/10/17 07:31:01;;;;;;;;;;;19.70;74.20;;;;;;5037817;27;89327;-58
2022/10/17 07:33:27;;;;;;;;;;;19.70;74.30;;;;;;5026166;27;89445;-57
2022/10/17 07:35:52;;;;;;;;;;;19.70;74.20;;;;;;5025056;27;91585;-54
2022/10/17 07:38:18;;;;;;;;;;;19.70;74.30;;;;;;5025559;27;90956;-57
2022/10/17 07:40:43;;;;;;;;;;;19.70;74.20;;;;;;5024331;27;90078;-58
2022/10/17 07:43:09;;;;;;;;;;;19.70;74.20;;;;;;5030719;27;89487;-54
2022/10/17 07:45:34;;;;;;;;;;;19.70;74.20;;;;;;5029084;27;89929;-57
2022/10/17 07:48:00;;;;;;;;;;;19.70;74.20;;;;;;5026454;27;93421;-55
2022/10/17 07:50:25;;;;;;;;;;;19.70;74.20;;;;;;5034186;27;89927;-57
2022/10/17 07:52:51;;;;;;;;;;;19.70;74.20;;;;;;5019881;27;90643;-55
2022/10/17 07:55:16;;;;;;;;;;;19.70;74.20;;;;;;5040162;27;89060;-56
2022/10/17 07:57:42;;;;;;;;;;;19.70;74.20;;;;;;5029216;27;90807;-56
2022/10/17 08:00:08;;;;;;;;;;;19.70;74.20;;;;;;5016124;27;90081;-54
2022/10/17 08:02:33;;;;;;;;;;;19.70;74.20;;;;;;5024776;27;93372;-55
2022/10/17 08:04:59;;;;;;;;;;;19.70;74.20;;;;;;5026717;27;91539;-56
2022/10/17 08:07:24;;;;;;;;;;;19.70;74.20;;;;;;5027196;27;91693;-56
2022/10/17 08:09:50;;;;;;;;;;;19.70;74.20;;;;;;5035267;27;89443;-55
2022/10/17 08:12:15;;;;;;;;;;;19.70;74.20;;;;;;5024124;27;90430;-55
2022/10/17 08:14:41;;;;;;;;;;;19.70;74.20;;;;;;5022434;27;89837;-56
2022/10/17 08:17:07;;;;;;;;;;;19.80;74.20;;;;;;5034967;27;89980;-57
2022/10/17 08:19:33;;;;;;;;;;;19.70;74.20;;;;;;5021213;27;90857;-56
2022/10/17 08:22:00;;;;;;;;;;;19.70;74.20;;;;;;5024319;27;89558;-58
2022/10/17 08:24:25;;;;;;;;;;;19.80;74.30;;;;;;5027555;27;93841;-56
2022/10/17 08:26:52;;;;;;;;;;;19.70;74.20;;;;;;5027928;27;91227;-53
2022/10/17 08:29:18;;;;;;;;;;;19.70;74.20;;;;;;5025880;27;89826;-53
2022/10/17 08:31:43;;;;;;;;;;;19.70;74.20;;;;;;5038373;27;96303;-55
2022/10/17 08:34:09;;;;;;;;;;;19.70;74.30;;;;;;5053232;27;89969;-52
2022/10/17 08:36:34;;;;;;;;;;;19.70;75.00;;;;;;5047222;27;93201;-55
2022/10/17 08:38:59;;;;;;;;;;;19.70;74.20;;;;;;5047990;27;89928;-57
2022/10/17 08:41:44;;;;;;;;;;;19.70;74.20;;;;;;5044580;27;90266;-56
2022/10/17 08:44:09;;;;;;;;;;;19.70;74.20;;;;;;5047293;27;92223;-58
2022/10/17 08:46:36;;;;;;;;;;;19.70;74.30;;;;;;5051734;27;89967;-56
2022/10/17 08:49:03;;;;;;;;;;;19.70;74.30;;;;;;5044488;27;89995;-58
2022/10/17 08:51:33;;;;;;;;;;;19.70;74.20;;;;;;5055381;27;91909;-56
2022/10/17 08:54:19;;;;;;;;;;;19.80;74.30;;;;;;5038609;27;89599;-54
2022/10/17 08:56:47;;;;;;;;;;;19.80;74.30;;;;;;5043602;27;89914;-56
2022/10/17 08:59:15;;;;;;;;;;;19.70;74.30;;;;;;5050195;27;89931;-54
2022/10/17 09:01:44;;;;;;;;;;;19.70;74.30;;;;;;5044328;27;91427;-56
2022/10/17 09:04:30;;;;;;;;;;;19.70;74.30;;;;;;5053333;27;90392;-56
2022/10/17 09:06:55;;;;;;;;;;;19.80;74.30;;;;;;5054070;27;92534;-55
2022/10/17 09:09:21;;;;;;;;;;;19.70;74.20;;;;;;5054306;27;92236;-56
2022/10/17 09:11:49;;;;;;;;;;;19.70;74.20;;;;;;5047838;27;90266;-55
2022/10/17 09:14:29;;;;;;;;;;;19.70;74.20;;;;;;5049920;27;91026;-55
2022/10/17 09:17:04;;;;;;;;;;;19.80;74.30;;;;;;5050622;27;90921;-57
2022/10/17 09:19:35;;;;;;;;;;;19.70;74.20;;;;;;5027937;27;90263;-57
2022/10/17 09:22:03;;;;;;;;;;;19.70;74.20;;;;;;5045409;27;92603;-56
2022/10/17 09:24:34;;;;;;;;;;;19.70;74.20;;;;;;5050877;27;94891;-57
2022/10/17 09:27:01;;;;;;;;;;;19.80;74.20;;;;;;5050111;27;90187;-55
2022/10/17 09:29:26;;;;;;;;;;;19.80;74.20;;;;;;5047316;27;89472;-58
2022/10/17 09:32:03;;;;;;;;;;;19.70;74.20;;;;;;5058030;27;90593;-58
2022/10/17 09:34:30;;;;;;;;;;;19.80;74.20;;;;;;5052894;27;89953;-57
2022/10/17 09:36:57;;;;;;;;;;;19.70;74.10;;;;;;5050781;27;93426;-54
2022/10/17 09:39:30;;;;;;;;;;;19.70;74.10;;;;;;5047726;27;90805;-53
2022/10/17 09:41:57;;;;;;;;;;;19.80;74.10;;;;;;5052242;27;91000;-56
2022/10/17 09:44:46;;;;;;;;;;;19.70;74.10;;;;;;5041114;27;90492;-55
2022/10/17 09:47:27;;;;;;;;;;;19.80;74.10;;;;;;5052369;27;90579;-56
2022/10/17 09:49:52;;;;;;;;;;;19.80;74.10;;;;;;5052341;27;89537;-55
2022/10/17 09:52:25;;;;;;;;;;;19.70;74.10;;;;;;5045781;27;90388;-55
2022/10/17 09:54:56;;;;;;;;;;;19.70;74.10;;;;;;5048252;27;89935;-56
2022/10/17 09:57:22;;;;;;;;;;;19.80;74.10;;;;;;5047319;27;89925;-55
2022/10/17 09:59:56;;;;;;;;;;;19.80;74.10;;;;;;5054283;27;89495;-57
2022/10/17 10:02:22;;;;;;;;;;;19.80;74.00;;;;;;5043161;27;89861;-56
2022/10/17 10:04:51;;;;;;;;;;;19.80;74.10;;;;;;5044396;27;90098;-55
2022/10/17 10:07:19;;;;;;;;;;;19.80;74.00;;;;;;5055312;27;95060;-56
2022/10/17 10:09:45;;;;;;;;;;;19.80;74.10;;;;;;5053377;27;90539;-55
2022/10/17 10:12:22;;;;;;;;;;;19.80;74.10;;;;;;5044088;27;90033;-58
2022/10/17 10:14:48;;;;;;;;;;;19.70;74.10;;;;;;5041539;27;91117;-56
2022/10/17 10:17:32;;;;;;;;;;;19.70;74.20;;;;;;5043882;27;92863;-56
2022/10/17 10:19:57;;;;;;;;;;;19.80;74.10;;;;;;5049251;27;90248;-56
2022/10/17 10:22:23;;;;;;;;;;;19.80;74.10;;;;;;5042179;27;90951;-55
2022/10/17 10:25:07;;;;;;;;;;;19.80;74.00;;;;;;5049638;27;90004;-54
2022/10/17 10:27:33;;;;;;;;;;;19.80;74.10;;;;;;5050678;27;89589;-52
2022/10/17 10:29:59;;;;;;;;;;;19.80;74.40;;;;;;5056658;27;90093;-56
2022/10/17 10:32:29;;;;;;;;;;;19.80;74.40;;;;;;5024385;27;95972;-55
2022/10/17 10:34:56;;;;;;;;;;;19.80;74.60;;;;;;5025128;27;90182;-56
2022/10/17 10:37:26;;;;;;;;;;;19.80;74.50;;;;;;5028037;27;93095;-54
2022/10/17 10:39:53;;;;;;;;;;;19.80;74.50;;;;;;5028240;27;89920;-56
2022/10/17 10:42:24;;;;;;;;;;;19.80;74.50;;;;;;5020789;27;91625;-56
2022/10/17 10:44:51;;;;;;;;;;;19.90;74.60;;;;;;5026573;27;93566;-55
2022/10/17 10:47:21;;;;;;;;;;;19.80;74.60;;;;;;5023800;27;90170;-55
2022/10/17 10:49:49;;;;;;;;;;;19.80;74.60;;;;;;5024012;27;89595;-57
2022/10/17 10:52:38;;;;;;;;;;;19.80;74.70;;;;;;5017742;27;90290;-56
2022/10/17 10:55:25;;;;;;;;;;;19.90;74.70;;;;;;4999013;27;90671;-56
2022/10/17 10:57:51;;;;;;;;;;;19.90;74.70;;;;;;5032365;27;91036;-53
2022/10/17 11:00:20;;;;;;;;;;;19.90;74.70;;;;;;5023264;27;91832;-56
2022/10/17 11:02:54;;;;;;;;;;;19.90;74.80;;;;;;5018189;27;92468;-56
2022/10/17 11:05:20;;;;;;;;;;;19.80;74.70;;;;;;5032574;27;90335;-59
2022/10/17 11:07:51;;;;;;;;;;;19.90;74.70;;;;;;5016307;27;90121;-57
2022/10/17 11:10:16;;;;;;;;;;;19.90;74.80;;;;;;5020318;27;89861;-55
2022/10/17 11:12:42;;;;;;;;;;;19.90;74.80;;;;;;5024750;27;89886;-55
2022/10/17 11:15:15;;;;;;;;;;;19.90;74.80;;;;;;5028750;27;89205;-55
2022/10/17 11:17:52;;;;;;;;;;;19.90;74.70;;;;;;5015373;27;91891;-56
2022/10/17 11:20:24;;;;;;;;;;;19.80;74.70;;;;;;5019441;27;89957;-56
2022/10/17 11:22:53;;;;;;;;;;;19.80;74.80;;;;;;5018906;27;91560;-53
2022/10/17 11:25:21;;;;;;;;;;;19.80;74.90;;;;;;5023438;27;89886;-54
2022/10/17 11:27:47;;;;;;;;;;;19.80;74.80;;;;;;5031349;27;89905;-55
2022/10/17 11:30:15;;;;;;;;;;;19.80;74.60;;;;;;5022329;27;90530;-56
2022/10/17 11:32:47;;;;;;;;;;;19.90;74.50;;;;;;5027942;27;89581;-56
2022/10/17 11:35:23;;;;;;;;;;;19.90;74.70;;;;;;5027707;27;94092;-56
2022/10/17 11:37:51;;;;;;;;;;;19.90;74.50;;;;;;5032035;27;89736;-57
2022/10/17 11:40:37;;;;;;;;;;;19.80;74.40;;;;;;5029244;27;90624;-57
2022/10/17 11:43:05;;;;;;;;;;;19.80;74.50;;;;;;5027430;27;91140;-56
2022/10/17 11:45:35;;;;;;;;;;;19.80;74.50;;;;;;5022114;27;90098;-57
2022/10/17 11:48:04;;;;;;;;;;;19.90;74.60;;;;;;5020847;27;94096;-55
2022/10/17 11:50:32;;;;;;;;;;;19.90;74.60;;;;;;5025148;27;90350;-55
2022/10/17 11:53:12;;;;;;;;;;;19.90;74.60;;;;;;5030286;27;90082;-56
2022/10/17 11:55:39;;;;;;;;;;;19.80;74.50;;;;;;5027243;27;89824;-56
2022/10/17 11:58:05;;;;;;;;;;;19.90;74.60;;;;;;5023873;27;90626;-56
2022/10/17 12:01:00;;;;;;;;;;;19.90;74.60;;;;;;5018852;27;89882;-58
2022/10/17 12:03:32;;;;;;;;;;;19.80;74.50;;;;;;5003537;27;90335;-53
2022/10/17 12:06:02;;;;;;;;;;;19.90;74.60;;;;;;5030426;27;90665;-55
2022/10/17 12:08:33;;;;;;;;;;;19.90;74.60;;;;;;5024365;27;89853;-55
2022/10/17 12:11:11;;;;;;;;;;;19.80;74.60;;;;;;5026545;27;89931;-55
2022/10/17 12:13:36;;;;;;;;;;;19.90;74.60;;;;;;5031866;27;95398;-56
2022/10/17 12:16:20;;;;;;;;;;;19.90;74.60;;;;;;5027941;27;90206;-54
2022/10/17 12:18:51;;;;;;;;;;;19.90;74.60;;;;;;5024726;27;89706;-55
2022/10/17 12:21:17;;;;;;;;;;;19.90;74.60;;;;;;5019991;27;89944;-55
2022/10/17 12:23:50;;;;;;;;;;;19.90;74.60;;;;;;5023489;27;90066;-54
2022/10/17 12:26:24;;;;;;;;;;;19.90;74.50;;;;;;5019106;27;90580;-57
2022/10/17 12:28:50;;;;;;;;;;;19.90;74.60;;;;;;5031476;27;89825;-58
2022/10/17 12:31:16;;;;;;;;;;;19.90;74.70;;;;;;5033532;27;89047;-55
2022/10/17 12:33:49;;;;;;;;;;;19.90;74.70;;;;;;5039176;27;90613;-55
2022/10/17 12:36:17;;;;;;;;;;;19.90;74.60;;;;;;5058230;27;89869;-55
2022/10/17 12:38:43;;;;;;;;;;;19.90;74.60;;;;;;5040517;27;90763;-57
2022/10/17 12:41:09;;;;;;;;;;;19.90;74.70;;;;;;5045098;27;91409;-55
2022/10/17 12:43:36;;;;;;;;;;;19.90;74.70;;;;;;5048221;27;90890;-58
2022/10/17 12:46:02;;;;;;;;;;;19.90;74.70;;;;;;5049371;27;89854;-54
2022/10/17 12:48:40;;;;;;;;;;;19.90;74.60;;;;;;5053918;27;89508;-56
2022/10/17 12:51:11;;;;;;;;;;;19.90;74.70;;;;;;5047916;27;90342;-55
2022/10/17 12:53:55;;;;;;;;;;;19.90;74.90;;;;;;5045206;27;93499;-55
2022/10/17 12:56:29;;;;;;;;;;;19.90;75.00;;;;;;5041940;27;89810;-56
2022/10/17 12:58:55;;;;;;;;;;;19.90;75.00;;;;;;5038371;27;92797;-55
2022/10/17 13:01:29;;;;;;;;;;;19.90;75.10;;;;;;5043544;27;95684;-54
2022/10/17 13:03:55;;;;;;;;;;;19.90;75.10;;;;;;5056396;27;90729;-56
2022/10/17 13:06:26;;;;;;;;;;;19.90;75.20;;;;;;5026475;27;90055;-53
2022/10/17 13:09:03;;;;;;;;;;;19.90;75.20;;;;;;5041455;27;89780;-54
2022/10/17 13:11:30;;;;;;;;;;;19.90;75.10;;;;;;5043439;27;89666;-58
2022/10/17 13:13:57;;;;;;;;;;;19.90;75.10;;;;;;5042692;27;90440;-53
2022/10/17 13:16:30;;;;;;;;;;;19.90;75.10;;;;;;5048672;27;90628;-53
2022/10/17 13:18:56;;;;;;;;;;;19.90;75.00;;;;;;5043946;27;90092;-56
2022/10/17 13:21:22;;;;;;;;;;;20.00;75.10;;;;;;5039176;27;93968;-54
2022/10/17 13:23:49;;;;;;;;;;;20.00;75.00;;;;;;5044929;27;90238;-57
2022/10/17 13:26:18;;;;;;;;;;;19.90;75.10;;;;;;5049507;27;90199;-52
2022/10/17 13:28:45;;;;;;;;;;;19.90;75.00;;;;;;5041502;27;90895;-57
2022/10/17 13:31:27;;;;;;;;;;;19.90;75.00;;;;;;5040284;27;91929;-55
2022/10/17 13:33:57;;;;;;;;;;;19.90;74.90;;;;;;5048570;27;90287;-54
2022/10/17 13:36:23;;;;;;;;;;;19.90;74.90;;;;;;5051791;27;89913;-50
2022/10/17 13:38:49;;;;;;;;;;;20.00;74.90;;;;;;5043090;27;93026;-58
2022/10/17 13:41:24;;;;;;;;;;;20.00;75.00;;;;;;5047230;27;89653;-52
2022/10/17 13:43:50;;;;;;;;;;;20.00;75.00;;;;;;5052692;27;89958;-54
2022/10/17 13:46:22;;;;;;;;;;;20.00;74.90;;;;;;5053102;27;89681;-54
2022/10/17 13:48:48;;;;;;;;;;;20.00;75.00;;;;;;5054704;27;89478;-53
2022/10/17 13:51:14;;;;;;;;;;;20.00;74.90;;;;;;5051006;27;92299;-56
2022/10/17 13:53:42;;;;;;;;;;;20.00;75.00;;;;;;5047246;27;91319;-56
2022/10/17 13:56:40;;;;;;;;;;;20.00;75.00;;;;;;5056832;27;89485;-54
2022/10/17 13:59:17;;;;;;;;;;;20.00;74.90;;;;;;5010032;27;90720;-56
2022/10/17 14:01:43;;;;;;;;;;;20.00;74.90;;;;;;5054754;27;89887;-54
2022/10/17 14:04:09;;;;;;;;;;;20.00;74.90;;;;;;5027995;27;90700;-57
2022/10/17 14:06:42;;;;;;;;;;;20.00;74.90;;;;;;5043102;27;93668;-55
2022/10/17 14:09:16;;;;;;;;;;;20.00;74.90;;;;;;5047336;27;94382;-55
2022/10/17 14:11:43;;;;;;;;;;;20.00;75.00;;;;;;5052411;27;91329;-54
2022/10/17 14:14:16;;;;;;;;;;;20.00;75.00;;;;;;5046183;27;90197;-54
2022/10/17 14:16:42;;;;;;;;;;;20.00;75.00;;;;;;5030046;27;90448;-55
2022/10/17 14:19:28;;;;;;;;;;;20.00;74.90;;;;;;5047046;27;95028;-56
2022/10/17 14:21:55;;;;;;;;;;;20.00;74.80;;;;;;5046976;27;91876;-55
2022/10/17 14:24:21;;;;;;;;;;;20.00;74.90;;;;;;5046532;27;89527;-54